SHT21 EGJB-EGLL
Flight info
| Callsign | SHT21 |
|---|---|
| Flight time | 0h 35m |
| Altitude | 19000 |
| Route | ORIST1F ORIST L982 ROXOG ROXOG1H |
| Aircraft | A320/M-SDE3FGHIJ1RWXY/S |
Departure
| Time | 2026-05-05 12:58 |
|---|---|
| Airport | Guernsey Airport (EGJB) |
Arrival
| Time | 2026-05-05 13:34 |
|---|---|
| Airport | London Heathrow Airport (EGLL) |
| Time | Latitude | Longitude | Altitude | Speed | Heading |
|---|---|---|---|---|---|
| 2026-05-05 12:46 | 49.43337 | -2.59691 | 340 ft | 2 kts | 186° |
| 2026-05-05 12:47 | 49.43353 | -2.59684 | 337 ft | 2 kts | 220° |
| 2026-05-05 12:47 | 49.43363 | -2.59666 | 334 ft | 2 kts | 253° |
| 2026-05-05 12:47 | 49.43355 | -2.59725 | 338 ft | 18 kts | 259° |
| 2026-05-05 12:47 | 49.43342 | -2.59941 | 335 ft | 22 kts | 271° |
| 2026-05-05 12:48 | 49.43337 | -2.60184 | 330 ft | 25 kts | 267° |
| 2026-05-05 12:48 | 49.43331 | -2.60448 | 325 ft | 25 kts | 269° |
| 2026-05-05 12:48 | 49.43329 | -2.60617 | 324 ft | 15 kts | 269° |
| 2026-05-05 12:48 | 49.43349 | -2.60794 | 321 ft | 19 kts | 282° |
| 2026-05-05 12:49 | 49.43369 | -2.60983 | 318 ft | 0 kts | 280° |
| 2026-05-05 12:49 | 49.43367 | -2.60986 | 318 ft | 1 kts | 250° |
| 2026-05-05 12:49 | 49.43366 | -2.60998 | 318 ft | 0 kts | 279° |
| 2026-05-05 12:50 | 49.43366 | -2.60999 | 318 ft | 1 kts | 281° |
| 2026-05-05 12:50 | 49.43363 | -2.61095 | 316 ft | 18 kts | 268° |
| 2026-05-05 12:51 | 49.43363 | -2.61243 | 314 ft | 0 kts | 273° |
| 2026-05-05 12:51 | 49.43377 | -2.61279 | 312 ft | 13 kts | 305° |
| 2026-05-05 12:51 | 49.43441 | -2.61348 | 313 ft | 10 kts | 2° |
| 2026-05-05 12:51 | 49.43464 | -2.61299 | 314 ft | 0 kts | 124° |
| 2026-05-05 12:53 | 49.43463 | -2.61299 | 314 ft | 0 kts | 126° |
| 2026-05-05 12:57 | 49.43476 | -2.61251 | 314 ft | 10 kts | 62° |
| 2026-05-05 12:57 | 49.43475 | -2.61129 | 317 ft | 32 kts | 95° |
| 2026-05-05 12:57 | 49.43498 | -2.60370 | 325 ft | 110 kts | 88° |
| 2026-05-05 12:58 | 49.43548 | -2.59432 | 349 ft | 148 kts | 77° |
| 2026-05-05 12:58 | 49.43654 | -2.57758 | 935 ft | 156 kts | 84° |
| 2026-05-05 12:58 | 49.43698 | -2.55510 | 1802 ft | 168 kts | 84° |
| 2026-05-05 12:58 | 49.43723 | -2.54255 | 2089 ft | 179 kts | 84° |
| 2026-05-05 12:59 | 49.43777 | -2.52241 | 2190 ft | 204 kts | 79° |
| 2026-05-05 12:59 | 49.44295 | -2.50107 | 2415 ft | 222 kts | 53° |
| 2026-05-05 12:59 | 49.45483 | -2.48514 | 2705 ft | 237 kts | 25° |
| 2026-05-05 13:00 | 49.48718 | -2.47191 | 3929 ft | 244 kts | 14° |
| 2026-05-05 13:00 | 49.50375 | -2.46567 | 4551 ft | 246 kts | 14° |
| 2026-05-05 13:01 | 49.55507 | -2.44617 | 7297 ft | 261 kts | 14° |
| 2026-05-05 13:01 | 49.57296 | -2.43937 | 8225 ft | 266 kts | 14° |
| 2026-05-05 13:01 | 49.59110 | -2.43243 | 9137 ft | 270 kts | 14° |
| 2026-05-05 13:01 | 49.60937 | -2.42539 | 10008 ft | 275 kts | 15° |
| 2026-05-05 13:02 | 49.62796 | -2.41821 | 10818 ft | 279 kts | 14° |
| 2026-05-05 13:02 | 49.64684 | -2.41094 | 11638 ft | 282 kts | 15° |
| 2026-05-05 13:02 | 49.66627 | -2.40348 | 12451 ft | 287 kts | 15° |
| 2026-05-05 13:02 | 49.68554 | -2.39543 | 13266 ft | 290 kts | 21° |
| 2026-05-05 13:03 | 49.70346 | -2.38141 | 14021 ft | 294 kts | 34° |
| 2026-05-05 13:03 | 49.71957 | -2.35965 | 14229 ft | 317 kts | 49° |
| 2026-05-05 13:03 | 49.73415 | -2.33295 | 14457 ft | 337 kts | 50° |
| 2026-05-05 13:03 | 49.74947 | -2.30480 | 15009 ft | 344 kts | 50° |
| 2026-05-05 13:04 | 49.76500 | -2.27636 | 15643 ft | 349 kts | 50° |
| 2026-05-05 13:04 | 49.78072 | -2.24765 | 16292 ft | 353 kts | 50° |
| 2026-05-05 13:04 | 49.79653 | -2.21882 | 16941 ft | 357 kts | 50° |
| 2026-05-05 13:04 | 49.81278 | -2.18917 | 17604 ft | 361 kts | 50° |
| 2026-05-05 13:05 | 49.82916 | -2.15931 | 18254 ft | 365 kts | 50° |
| 2026-05-05 13:05 | 49.84557 | -2.12930 | 18844 ft | 369 kts | 50° |
| 2026-05-05 13:05 | 49.86227 | -2.09867 | 19432 ft | 373 kts | 50° |
| 2026-05-05 13:05 | 49.87916 | -2.06773 | 20043 ft | 377 kts | 50° |
| 2026-05-05 13:06 | 49.89597 | -2.03691 | 20453 ft | 372 kts | 50° |
| 2026-05-05 13:06 | 49.91255 | -2.00645 | 20108 ft | 366 kts | 50° |
| 2026-05-05 13:06 | 49.92893 | -1.97626 | 19951 ft | 364 kts | 50° |
| 2026-05-05 13:06 | 49.94514 | -1.94631 | 19980 ft | 365 kts | 50° |
| 2026-05-05 13:07 | 49.96149 | -1.91613 | 19980 ft | 366 kts | 50° |
| 2026-05-05 13:07 | 49.97797 | -1.88576 | 19978 ft | 366 kts | 50° |
| 2026-05-05 13:07 | 49.99564 | -1.85749 | 19977 ft | 366 kts | 41° |
| 2026-05-05 13:07 | 50.01578 | -1.83381 | 19974 ft | 367 kts | 33° |
| 2026-05-05 13:08 | 50.03823 | -1.81456 | 19976 ft | 367 kts | 27° |
| 2026-05-05 13:08 | 50.06098 | -1.79663 | 19975 ft | 367 kts | 27° |
| 2026-05-05 13:08 | 50.08366 | -1.77875 | 19975 ft | 367 kts | 27° |
| 2026-05-05 13:08 | 50.10633 | -1.76089 | 19970 ft | 367 kts | 27° |
| 2026-05-05 13:09 | 50.12826 | -1.74054 | 19971 ft | 367 kts | 36° |
| 2026-05-05 13:09 | 50.14827 | -1.71552 | 19834 ft | 364 kts | 40° |
| 2026-05-05 13:09 | 50.16736 | -1.69067 | 19341 ft | 361 kts | 40° |
| 2026-05-05 13:09 | 50.18684 | -1.66532 | 19007 ft | 358 kts | 40° |
| 2026-05-05 13:10 | 50.20586 | -1.64058 | 18952 ft | 359 kts | 40° |
| 2026-05-05 13:10 | 50.21959 | -1.62275 | 18969 ft | 360 kts | 40° |
| 2026-05-05 13:10 | 50.23891 | -1.59779 | 18967 ft | 361 kts | 39° |
| 2026-05-05 13:10 | 50.25954 | -1.57502 | 18970 ft | 361 kts | 32° |
| 2026-05-05 13:11 | 50.28160 | -1.55676 | 18968 ft | 361 kts | 24° |
| 2026-05-05 13:11 | 50.30514 | -1.54303 | 18970 ft | 362 kts | 18° |
| 2026-05-05 13:11 | 50.32901 | -1.53148 | 18970 ft | 362 kts | 18° |
| 2026-05-05 13:11 | 50.35324 | -1.51974 | 18966 ft | 362 kts | 18° |
| 2026-05-05 13:12 | 50.37713 | -1.50811 | 18966 ft | 362 kts | 18° |
| 2026-05-05 13:12 | 50.40126 | -1.49630 | 18963 ft | 362 kts | 18° |
| 2026-05-05 13:12 | 50.42510 | -1.48458 | 18963 ft | 362 kts | 18° |
| 2026-05-05 13:12 | 50.44912 | -1.47276 | 18964 ft | 362 kts | 18° |
| 2026-05-05 13:13 | 50.47334 | -1.46085 | 18964 ft | 362 kts | 18° |
| 2026-05-05 13:13 | 50.49229 | -1.45151 | 18965 ft | 362 kts | 18° |
| 2026-05-05 13:13 | 50.51553 | -1.44273 | 18959 ft | 363 kts | 14° |
| 2026-05-05 13:13 | 50.53950 | -1.43042 | 18960 ft | 362 kts | 26° |
| 2026-05-05 13:14 | 50.56098 | -1.41100 | 18963 ft | 362 kts | 32° |
| 2026-05-05 13:14 | 50.58252 | -1.39043 | 18959 ft | 362 kts | 31° |
| 2026-05-05 13:14 | 50.59715 | -1.37712 | 18960 ft | 362 kts | 30° |
| 2026-05-05 13:14 | 50.61144 | -1.36013 | 18942 ft | 360 kts | 46° |
| 2026-05-05 13:15 | 50.62843 | -1.33122 | 18957 ft | 362 kts | 42° |
| 2026-05-05 13:15 | 50.64976 | -1.30970 | 18962 ft | 363 kts | 25° |
| 2026-05-05 13:15 | 50.67302 | -1.29521 | 18963 ft | 364 kts | 19° |
| 2026-05-05 13:15 | 50.69728 | -1.28212 | 18962 ft | 364 kts | 20° |
| 2026-05-05 13:16 | 50.72099 | -1.26803 | 18965 ft | 365 kts | 22° |
| 2026-05-05 13:16 | 50.74386 | -1.25212 | 18966 ft | 365 kts | 26° |
| 2026-05-05 13:16 | 50.76679 | -1.23381 | 18964 ft | 365 kts | 29° |
| 2026-05-05 13:16 | 50.78559 | -1.21621 | 18967 ft | 365 kts | 32° |
| 2026-05-05 13:17 | 50.80672 | -1.19420 | 18967 ft | 365 kts | 34° |
| 2026-05-05 13:17 | 50.82775 | -1.17127 | 18511 ft | 365 kts | 35° |
| 2026-05-05 13:17 | 50.84829 | -1.14872 | 18015 ft | 362 kts | 35° |
| 2026-05-05 13:17 | 50.86897 | -1.12629 | 17473 ft | 359 kts | 34° |
| 2026-05-05 13:18 | 50.88954 | -1.10439 | 16950 ft | 356 kts | 34° |
| 2026-05-05 13:18 | 50.91029 | -1.08269 | 16416 ft | 353 kts | 33° |
| 2026-05-05 13:18 | 50.93079 | -1.06150 | 15904 ft | 350 kts | 33° |
| 2026-05-05 13:18 | 50.95116 | -1.04050 | 15401 ft | 347 kts | 33° |
| 2026-05-05 13:19 | 50.97074 | -1.02028 | 14923 ft | 344 kts | 33° |
| 2026-05-05 13:19 | 50.99078 | -0.99954 | 14433 ft | 341 kts | 33° |
| 2026-05-05 13:19 | 51.00944 | -0.97658 | 13999 ft | 337 kts | 44° |
| 2026-05-05 13:19 | 51.02516 | -0.94939 | 13626 ft | 331 kts | 48° |
| 2026-05-05 13:20 | 51.04035 | -0.92225 | 13230 ft | 327 kts | 48° |
| 2026-05-05 13:20 | 51.05546 | -0.89529 | 12829 ft | 325 kts | 48° |
| 2026-05-05 13:20 | 51.07047 | -0.86859 | 12440 ft | 324 kts | 48° |
| 2026-05-05 13:20 | 51.08533 | -0.84214 | 12058 ft | 322 kts | 48° |
| 2026-05-05 13:21 | 51.10019 | -0.81569 | 11687 ft | 322 kts | 48° |
| 2026-05-05 13:21 | 51.11517 | -0.78899 | 11298 ft | 319 kts | 48° |
| 2026-05-05 13:21 | 51.12969 | -0.76304 | 10924 ft | 312 kts | 48° |
| 2026-05-05 13:21 | 51.14378 | -0.73780 | 10555 ft | 297 kts | 48° |
| 2026-05-05 13:22 | 51.15727 | -0.71359 | 10195 ft | 288 kts | 48° |
| 2026-05-05 13:22 | 51.17051 | -0.68981 | 9823 ft | 287 kts | 48° |
| 2026-05-05 13:22 | 51.18377 | -0.66600 | 9429 ft | 285 kts | 48° |
| 2026-05-05 13:22 | 51.19688 | -0.64245 | 9030 ft | 283 kts | 48° |
| 2026-05-05 13:23 | 51.20996 | -0.61896 | 8644 ft | 284 kts | 48° |
| 2026-05-05 13:23 | 51.22307 | -0.59533 | 8254 ft | 284 kts | 48° |
| 2026-05-05 13:23 | 51.23608 | -0.57179 | 7878 ft | 284 kts | 48° |
| 2026-05-05 13:23 | 51.24911 | -0.54825 | 7565 ft | 280 kts | 48° |
| 2026-05-05 13:24 | 51.26195 | -0.52508 | 7356 ft | 274 kts | 48° |
| 2026-05-05 13:24 | 51.27655 | -0.50683 | 7228 ft | 265 kts | 23° |
| 2026-05-05 13:24 | 51.29427 | -0.50227 | 7108 ft | 256 kts | 354° |
| 2026-05-05 13:24 | 51.31053 | -0.51153 | 6996 ft | 249 kts | 326° |
| 2026-05-05 13:25 | 51.32187 | -0.53161 | 6962 ft | 243 kts | 298° |
| 2026-05-05 13:25 | 51.32777 | -0.55708 | 6972 ft | 245 kts | 289° |
| 2026-05-05 13:25 | 51.33307 | -0.58310 | 6970 ft | 245 kts | 289° |
| 2026-05-05 13:25 | 51.33834 | -0.60904 | 6970 ft | 245 kts | 289° |
| 2026-05-05 13:26 | 51.34358 | -0.63483 | 6971 ft | 245 kts | 289° |
| 2026-05-05 13:26 | 51.34880 | -0.66050 | 6912 ft | 240 kts | 289° |
| 2026-05-05 13:26 | 51.35385 | -0.68604 | 6618 ft | 242 kts | 289° |
| 2026-05-05 13:26 | 51.35885 | -0.71170 | 6360 ft | 241 kts | 289° |
| 2026-05-05 13:27 | 51.36384 | -0.73733 | 6099 ft | 240 kts | 289° |
| 2026-05-05 13:27 | 51.36958 | -0.76212 | 5820 ft | 240 kts | 303° |
| 2026-05-05 13:27 | 51.38022 | -0.77960 | 5456 ft | 237 kts | 332° |
| 2026-05-05 13:27 | 51.39562 | -0.78729 | 5085 ft | 236 kts | 358° |
| 2026-05-05 13:28 | 51.41210 | -0.78809 | 4709 ft | 238 kts | 0° |
| 2026-05-05 13:28 | 51.42877 | -0.78882 | 4314 ft | 240 kts | 359° |
| 2026-05-05 13:28 | 51.44563 | -0.78965 | 3899 ft | 244 kts | 359° |
| 2026-05-05 13:28 | 51.46261 | -0.78892 | 3362 ft | 237 kts | 15° |
| 2026-05-05 13:29 | 51.47536 | -0.77523 | 3018 ft | 212 kts | 58° |
| 2026-05-05 13:29 | 51.47788 | -0.75390 | 2994 ft | 186 kts | 97° |
| 2026-05-05 13:29 | 51.47608 | -0.73436 | 3043 ft | 171 kts | 87° |
| 2026-05-05 13:29 | 51.47621 | -0.71590 | 2925 ft | 164 kts | 86° |
| 2026-05-05 13:30 | 51.47638 | -0.69763 | 2729 ft | 163 kts | 86° |
| 2026-05-05 13:30 | 51.47650 | -0.67950 | 2517 ft | 161 kts | 86° |
| 2026-05-05 13:30 | 51.47662 | -0.66150 | 2308 ft | 162 kts | 86° |
| 2026-05-05 13:30 | 51.47669 | -0.64810 | 2140 ft | 160 kts | 86° |
| 2026-05-05 13:31 | 51.47678 | -0.63339 | 1960 ft | 161 kts | 85° |
| 2026-05-05 13:31 | 51.47688 | -0.61521 | 1742 ft | 161 kts | 86° |
| 2026-05-05 13:31 | 51.47697 | -0.59707 | 1515 ft | 161 kts | 86° |
| 2026-05-05 13:31 | 51.47703 | -0.58278 | 1338 ft | 146 kts | 87° |
| 2026-05-05 13:32 | 51.47711 | -0.56626 | 1134 ft | 136 kts | 86° |
| 2026-05-05 13:32 | 51.47718 | -0.55128 | 960 ft | 133 kts | 86° |
| 2026-05-05 13:32 | 51.47725 | -0.53651 | 773 ft | 133 kts | 85° |
| 2026-05-05 13:32 | 51.47732 | -0.52189 | 581 ft | 129 kts | 88° |
| 2026-05-05 13:33 | 51.47738 | -0.50770 | 412 ft | 130 kts | 87° |
| 2026-05-05 13:33 | 51.47738 | -0.50698 | 408 ft | 130 kts | 86° |
| 2026-05-05 13:33 | 51.47730 | -0.49880 | 251 ft | 129 kts | 85° |
| 2026-05-05 13:33 | 51.47742 | -0.48427 | 113 ft | 129 kts | 86° |
| 2026-05-05 13:34 | 51.47751 | -0.47136 | 87 ft | 95 kts | 89° |
| 2026-05-05 13:34 | 51.47755 | -0.46365 | 92 ft | 30 kts | 89° |
| 2026-05-05 13:34 | 51.47718 | -0.46168 | 89 ft | 18 kts | 146° |
| 2026-05-05 13:34 | 51.47606 | -0.46064 | 87 ft | 18 kts | 187° |
| 2026-05-05 13:35 | 51.47590 | -0.46171 | 88 ft | 8 kts | 282° |
| 2026-05-05 13:35 | 51.47592 | -0.46272 | 88 ft | 10 kts | 268° |
| 2026-05-05 13:35 | 51.47592 | -0.46402 | 87 ft | 13 kts | 271° |
| 2026-05-05 13:35 | 51.47593 | -0.46529 | 87 ft | 12 kts | 269° |
| 2026-05-05 13:36 | 51.47591 | -0.46677 | 87 ft | 15 kts | 269° |
| 2026-05-05 13:36 | 51.47589 | -0.46856 | 87 ft | 18 kts | 266° |
| 2026-05-05 13:36 | 51.47582 | -0.47062 | 89 ft | 21 kts | 269° |
| 2026-05-05 13:36 | 51.47583 | -0.47249 | 88 ft | 15 kts | 272° |
| 2026-05-05 13:37 | 51.47582 | -0.47436 | 91 ft | 18 kts | 271° |
| 2026-05-05 13:37 | 51.47582 | -0.47649 | 89 ft | 20 kts | 269° |
| 2026-05-05 13:37 | 51.47582 | -0.47886 | 88 ft | 23 kts | 271° |
| 2026-05-05 13:37 | 51.47578 | -0.48139 | 87 ft | 22 kts | 269° |
| 2026-05-05 13:38 | 51.47578 | -0.48325 | 88 ft | 9 kts | 270° |
| 2026-05-05 13:38 | 51.47579 | -0.48420 | 90 ft | 0 kts | 270° |
| 2026-05-05 13:39 | 51.47576 | -0.48444 | 88 ft | 4 kts | 254° |
| 2026-05-05 13:39 | 51.47568 | -0.48465 | 88 ft | 2 kts | 236° |
| 2026-05-05 13:39 | 51.47550 | -0.48479 | 88 ft | 4 kts | 188° |
| 2026-05-05 13:39 | 51.47510 | -0.48478 | 87 ft | 7 kts | 179° |
| 2026-05-05 13:40 | 51.47427 | -0.48476 | 87 ft | 23 kts | 179° |
| 2026-05-05 13:40 | 51.47324 | -0.48476 | 87 ft | 12 kts | 180° |
| 2026-05-05 13:40 | 51.47232 | -0.48476 | 87 ft | 14 kts | 180° |
| 2026-05-05 13:40 | 51.47120 | -0.48475 | 87 ft | 18 kts | 179° |
| 2026-05-05 13:41 | 51.47028 | -0.48474 | 87 ft | 8 kts | 179° |
| 2026-05-05 13:41 | 51.46963 | -0.48473 | 87 ft | 11 kts | 179° |
| 2026-05-05 13:41 | 51.46889 | -0.48490 | 89 ft | 10 kts | 227° |
| 2026-05-05 13:41 | 51.46876 | -0.48612 | 87 ft | 13 kts | 270° |